sensor_id;sensor_type;location;lat;lon;timestamp;temperature;humidity
15257;DHT22;7731;50.720;6.912;2022-11-20T00:02:17;4.30;99.90
15257;DHT22;7731;50.720;6.912;2022-11-20T00:04:50;4.40;99.90
15257;DHT22;7731;50.720;6.912;2022-11-20T00:07:20;4.50;99.90
15257;DHT22;7731;50.720;6.912;2022-11-20T00:10:05;4.30;99.90
15257;DHT22;7731;50.720;6.912;2022-11-20T00:12:44;4.20;99.90
15257;DHT22;7731;50.720;6.912;2022-11-20T00:15:18;4.20;99.90
15257;DHT22;7731;50.720;6.912;2022-11-20T00:17:53;4.20;99.90
15257;DHT22;7731;50.720;6.912;2022-11-20T00:20:23;4.20;99.90
15257;DHT22;7731;50.720;6.912;2022-11-20T00:23:03;4.30;99.90
15257;DHT22;7731;50.720;6.912;2022-11-20T00:25:39;4.30;99.90
15257;DHT22;7731;50.720;6.912;2022-11-20T00:28:09;4.30;99.90
15257;DHT22;7731;50.720;6.912;2022-11-20T00:30:39;4.30;99.90
15257;DHT22;7731;50.720;6.912;2022-11-20T00:33:09;4.50;99.90
15257;DHT22;7731;50.720;6.912;2022-11-20T00:35:42;4.60;99.90
15257;DHT22;7731;50.720;6.912;2022-11-20T00:38:12;4.50;99.90
15257;DHT22;7731;50.720;6.912;2022-11-20T00:40:55;4.40;99.90
15257;DHT22;7731;50.720;6.912;2022-11-20T00:43:28;4.40;99.90
15257;DHT22;7731;50.720;6.912;2022-11-20T00:46:02;4.30;99.90
15257;DHT22;7731;50.720;6.912;2022-11-20T00:48:33;4.30;99.90
15257;DHT22;7731;50.720;6.912;2022-11-20T00:51:13;4.20;99.90
15257;DHT22;7731;50.720;6.912;2022-11-20T00:53:44;4.20;99.90
15257;DHT22;7731;50.720;6.912;2022-11-20T00:56:20;4.20;99.90
15257;DHT22;7731;50.720;6.912;2022-11-20T00:58:50;4.20;99.90
15257;DHT22;7731;50.720;6.912;2022-11-20T01:01:22;4.30;99.90
15257;DHT22;7731;50.720;6.912;2022-11-20T01:03:57;4.50;99.90
15257;DHT22;7731;50.720;6.912;2022-11-20T01:06:30;4.40;99.90
15257;DHT22;7731;50.720;6.912;2022-11-20T01:09:05;4.30;99.90
15257;DHT22;7731;50.720;6.912;2022-11-20T01:11:44;4.30;99.90
15257;DHT22;7731;50.720;6.912;2022-11-20T01:14:16;4.20;99.90
15257;DHT22;7731;50.720;6.912;2022-11-20T01:16:50;4.10;99.90
15257;DHT22;7731;50.720;6.912;2022-11-20T01:19:26;4.00;99.90
15257;DHT22;7731;50.720;6.912;2022-11-20T01:21:59;4.00;99.90
15257;DHT22;7731;50.720;6.912;2022-11-20T01:24:30;3.90;99.90
15257;DHT22;7731;50.720;6.912;2022-11-20T01:27:02;3.90;99.90
15257;DHT22;7731;50.720;6.912;2022-11-20T01:29:32;4.00;99.90
15257;DHT22;7731;50.720;6.912;2022-11-20T01:32:05;3.90;99.90
15257;DHT22;7731;50.720;6.912;2022-11-20T01:34:46;3.90;99.90
15257;DHT22;7731;50.720;6.912;2022-11-20T01:37:22;4.10;99.90
15257;DHT22;7731;50.720;6.912;2022-11-20T01:39:52;4.00;99.90
15257;DHT22;7731;50.720;6.912;2022-11-20T01:42:25;4.00;99.90
15257;DHT22;7731;50.720;6.912;2022-11-20T01:48:24;4.40;99.90
15257;DHT22;7731;50.720;6.912;2022-11-20T01:50:57;4.40;99.90
15257;DHT22;7731;50.720;6.912;2022-11-20T01:53:32;4.40;99.90
15257;DHT22;7731;50.720;6.912;2022-11-20T01:56:08;4.30;99.90
15257;DHT22;7731;50.720;6.912;2022-11-20T01:58:51;4.10;99.90
15257;DHT22;7731;50.720;6.912;2022-11-20T02:01:25;4.00;99.90
15257;DHT22;7731;50.720;6.912;2022-11-20T02:03:56;4.10;99.90
15257;DHT22;7731;50.720;6.912;2022-11-20T02:06:31;4.20;99.90
15257;DHT22;7731;50.720;6.912;2022-11-20T02:09:05;4.10;99.90
15257;DHT22;7731;50.720;6.912;2022-11-20T02:11:35;4.20;99.90
15257;DHT22;7731;50.720;6.912;2022-11-20T02:14:08;4.10;99.90
15257;DHT22;7731;50.720;6.912;2022-11-20T02:16:39;4.10;99.90
15257;DHT22;7731;50.720;6.912;2022-11-20T02:19:23;4.00;99.90
15257;DHT22;7731;50.720;6.912;2022-11-20T02:22:01;3.90;99.90
15257;DHT22;7731;50.720;6.912;2022-11-20T02:24:38;3.80;99.90
15257;DHT22;7731;50.720;6.912;2022-11-20T02:27:10;3.80;99.90
15257;DHT22;7731;50.720;6.912;2022-11-20T02:29:45;3.70;99.90
15257;DHT22;7731;50.720;6.912;2022-11-20T02:32:20;3.70;99.90
15257;DHT22;7731;50.720;6.912;2022-11-20T02:34:51;3.80;99.90
15257;DHT22;7731;50.720;6.912;2022-11-20T02:37:22;3.90;99.90
15257;DHT22;7731;50.720;6.912;2022-11-20T02:40:00;4.00;99.90
15257;DHT22;7731;50.720;6.912;2022-11-20T02:42:32;4.00;99.90
15257;DHT22;7731;50.720;6.912;2022-11-20T02:45:04;4.10;99.90
15257;DHT22;7731;50.720;6.912;2022-11-20T02:47:35;4.10;99.90
15257;DHT22;7731;50.720;6.912;2022-11-20T02:50:11;4.20;99.90
15257;DHT22;7731;50.720;6.912;2022-11-20T02:52:41;4.20;99.90
15257;DHT22;7731;50.720;6.912;2022-11-20T02:55:17;4.30;99.90
15257;DHT22;7731;50.720;6.912;2022-11-20T02:57:47;4.30;99.90
15257;DHT22;7731;50.720;6.912;2022-11-20T03:00:20;4.10;99.90
15257;DHT22;7731;50.720;6.912;2022-11-20T03:02:50;3.90;99.90
15257;DHT22;7731;50.720;6.912;2022-11-20T03:05:20;3.70;99.90
15257;DHT22;7731;50.720;6.912;2022-11-20T03:07:50;3.70;99.90
15257;DHT22;7731;50.720;6.912;2022-11-20T03:10:25;3.70;99.90
15257;DHT22;7731;50.720;6.912;2022-11-20T03:12:55;3.80;99.90
15257;DHT22;7731;50.720;6.912;2022-11-20T03:15:26;3.70;99.90
15257;DHT22;7731;50.720;6.912;2022-11-20T03:18:08;3.60;99.90
15257;DHT22;7731;50.720;6.912;2022-11-20T03:20:40;3.60;99.90
15257;DHT22;7731;50.720;6.912;2022-11-20T03:25:43;3.50;99.90
15257;DHT22;7731;50.720;6.912;2022-11-20T03:28:13;3.50;99.90
15257;DHT22;7731;50.720;6.912;2022-11-20T03:30:43;3.50;99.90
15257;DHT22;7731;50.720;6.912;2022-11-20T03:33:14;3.50;99.90
15257;DHT22;7731;50.720;6.912;2022-11-20T03:35:47;3.50;99.90
15257;DHT22;7731;50.720;6.912;2022-11-20T03:38:17;3.50;99.90
15257;DHT22;7731;50.720;6.912;2022-11-20T03:41:01;3.60;99.90
15257;DHT22;7731;50.720;6.912;2022-11-20T03:43:32;3.50;99.90
15257;DHT22;7731;50.720;6.912;2022-11-20T03:46:03;3.50;99.90
15257;DHT22;7731;50.720;6.912;2022-11-20T03:48:37;3.60;99.90
15257;DHT22;7731;50.720;6.912;2022-11-20T03:51:15;3.60;99.90
15257;DHT22;7731;50.720;6.912;2022-11-20T03:53:48;3.70;99.90
15257;DHT22;7731;50.720;6.912;2022-11-20T03:56:24;3.70;99.90
15257;DHT22;7731;50.720;6.912;2022-11-20T03:58:56;3.70;99.90
15257;DHT22;7731;50.720;6.912;2022-11-20T04:01:28;3.80;99.90
15257;DHT22;7731;50.720;6.912;2022-11-20T04:04:00;3.90;99.90
15257;DHT22;7731;50.720;6.912;2022-11-20T04:06:34;4.00;99.90
15257;DHT22;7731;50.720;6.912;2022-11-20T04:09:11;4.10;99.90
15257;DHT22;7731;50.720;6.912;2022-11-20T04:11:52;4.10;99.90
15257;DHT22;7731;50.720;6.912;2022-11-20T04:14:23;4.10;99.90
15257;DHT22;7731;50.720;6.912;2022-11-20T04:16:53;4.10;99.90
15257;DHT22;7731;50.720;6.912;2022-11-20T04:19:23;4.10;99.90
15257;DHT22;7731;50.720;6.912;2022-11-20T04:21:54;3.90;99.90
15257;DHT22;7731;50.720;6.912;2022-11-20T04:24:27;3.90;99.90
15257;DHT22;7731;50.720;6.912;2022-11-20T04:27:03;3.90;99.90
15257;DHT22;7731;50.720;6.912;2022-11-20T04:29:44;3.90;99.90
15257;DHT22;7731;50.720;6.912;2022-11-20T04:32:14;3.90;99.90
15257;DHT22;7731;50.720;6.912;2022-11-20T04:34:47;3.80;99.90
15257;DHT22;7731;50.720;6.912;2022-11-20T04:37:18;3.80;99.90
15257;DHT22;7731;50.720;6.912;2022-11-20T04:39:49;3.80;99.90
15257;DHT22;7731;50.720;6.912;2022-11-20T04:42:27;3.80;99.90
15257;DHT22;7731;50.720;6.912;2022-11-20T04:45:07;3.80;99.90
15257;DHT22;7731;50.720;6.912;2022-11-20T04:47:40;3.80;99.90
15257;DHT22;7731;50.720;6.912;2022-11-20T04:50:10;3.80;99.90
15257;DHT22;7731;50.720;6.912;2022-11-20T04:52:40;3.80;99.90
15257;DHT22;7731;50.720;6.912;2022-11-20T04:55:10;3.90;99.90
15257;DHT22;7731;50.720;6.912;2022-11-20T04:57:43;4.00;99.90
15257;DHT22;7731;50.720;6.912;2022-11-20T05:00:15;4.00;99.90
15257;DHT22;7731;50.720;6.912;2022-11-20T05:02:51;4.00;99.90
15257;DHT22;7731;50.720;6.912;2022-11-20T05:05:22;4.00;99.90
15257;DHT22;7731;50.720;6.912;2022-11-20T05:07:53;4.00;99.90
15257;DHT22;7731;50.720;6.912;2022-11-20T05:10:26;4.00;99.90
15257;DHT22;7731;50.720;6.912;2022-11-20T05:12:59;4.00;99.90
15257;DHT22;7731;50.720;6.912;2022-11-20T05:15:30;4.10;99.90
15257;DHT22;7731;50.720;6.912;2022-11-20T05:18:03;4.00;99.90
15257;DHT22;7731;50.720;6.912;2022-11-20T05:20:34;4.10;99.90
15257;DHT22;7731;50.720;6.912;2022-11-20T05:23:05;4.00;99.90
15257;DHT22;7731;50.720;6.912;2022-11-20T05:25:36;3.80;99.90
15257;DHT22;7731;50.720;6.912;2022-11-20T05:28:09;3.70;99.90
15257;DHT22;7731;50.720;6.912;2022-11-20T05:30:43;3.70;99.90
15257;DHT22;7731;50.720;6.912;2022-11-20T05:33:14;3.70;99.90
15257;DHT22;7731;50.720;6.912;2022-11-20T05:35:44;3.70;99.90
15257;DHT22;7731;50.720;6.912;2022-11-20T05:38:15;3.70;99.90
15257;DHT22;7731;50.720;6.912;2022-11-20T05:40:45;3.70;99.90
15257;DHT22;7731;50.720;6.912;2022-11-20T05:43:20;3.70;99.90
15257;DHT22;7731;50.720;6.912;2022-11-20T05:45:53;3.70;99.90
15257;DHT22;7731;50.720;6.912;2022-11-20T05:48:24;3.70;99.90
15257;DHT22;7731;50.720;6.912;2022-11-20T05:50:57;3.80;99.90
15257;DHT22;7731;50.720;6.912;2022-11-20T05:53:27;3.80;99.90
15257;DHT22;7731;50.720;6.912;2022-11-20T05:55:59;3.80;99.90
15257;DHT22;7731;50.720;6.912;2022-11-20T05:58:33;3.80;99.90
15257;DHT22;7731;50.720;6.912;2022-11-20T06:01:05;3.90;99.90
15257;DHT22;7731;50.720;6.912;2022-11-20T06:03:46;3.90;99.90
15257;DHT22;7731;50.720;6.912;2022-11-20T06:06:21;3.90;99.90
15257;DHT22;7731;50.720;6.912;2022-11-20T06:08:53;3.90;99.90
15257;DHT22;7731;50.720;6.912;2022-11-20T06:11:25;3.90;99.90
15257;DHT22;7731;50.720;6.912;2022-11-20T06:13:58;3.90;99.90
15257;DHT22;7731;50.720;6.912;2022-11-20T06:16:28;3.90;99.90
15257;DHT22;7731;50.720;6.912;2022-11-20T06:18:58;4.20;99.90
15257;DHT22;7731;50.720;6.912;2022-11-20T06:21:28;4.40;99.90
15257;DHT22;7731;50.720;6.912;2022-11-20T06:24:02;4.40;99.90
15257;DHT22;7731;50.720;6.912;2022-11-20T06:26:38;4.20;99.90
15257;DHT22;7731;50.720;6.912;2022-11-20T06:29:11;4.20;99.90
15257;DHT22;7731;50.720;6.912;2022-11-20T06:31:44;4.40;99.90
15257;DHT22;7731;50.720;6.912;2022-11-20T06:34:17;4.50;99.90
15257;DHT22;7731;50.720;6.912;2022-11-20T06:36:47;4.60;99.90
15257;DHT22;7731;50.720;6.912;2022-11-20T06:39:17;4.60;99.90
15257;DHT22;7731;50.720;6.912;2022-11-20T06:41:50;4.40;99.90
15257;DHT22;7731;50.720;6.912;2022-11-20T06:44:28;4.50;99.90
15257;DHT22;7731;50.720;6.912;2022-11-20T06:47:00;4.40;99.90
15257;DHT22;7731;50.720;6.912;2022-11-20T06:49:30;4.40;99.90
15257;DHT22;7731;50.720;6.912;2022-11-20T06:52:05;4.30;99.90
15257;DHT22;7731;50.720;6.912;2022-11-20T06:54:38;4.10;99.90
15257;DHT22;7731;50.720;6.912;2022-11-20T06:57:08;4.30;99.90
15257;DHT22;7731;50.720;6.912;2022-11-20T06:59:41;4.40;99.90
15257;DHT22;7731;50.720;6.912;2022-11-20T07:02:11;4.50;99.90
15257;DHT22;7731;50.720;6.912;2022-11-20T07:04:45;4.60;99.90
15257;DHT22;7731;50.720;6.912;2022-11-20T07:07:19;4.70;99.90
15257;DHT22;7731;50.720;6.912;2022-11-20T07:09:50;4.50;99.90
15257;DHT22;7731;50.720;6.912;2022-11-20T07:12:22;4.30;99.90
15257;DHT22;7731;50.720;6.912;2022-11-20T07:14:58;4.20;99.90
15257;DHT22;7731;50.720;6.912;2022-11-20T07:17:28;4.10;99.90
15257;DHT22;7731;50.720;6.912;2022-11-20T07:19:58;4.20;99.90
15257;DHT22;7731;50.720;6.912;2022-11-20T07:22:31;4.20;99.90
15257;DHT22;7731;50.720;6.912;2022-11-20T07:25:05;4.10;99.90
15257;DHT22;7731;50.720;6.912;2022-11-20T07:27:44;4.10;99.90
15257;DHT22;7731;50.720;6.912;2022-11-20T07:30:26;4.10;99.90
15257;DHT22;7731;50.720;6.912;2022-11-20T07:33:00;4.00;99.90
15257;DHT22;7731;50.720;6.912;2022-11-20T07:35:36;4.00;99.90
15257;DHT22;7731;50.720;6.912;2022-11-20T07:38:07;4.10;99.90
15257;DHT22;7731;50.720;6.912;2022-11-20T07:40:40;4.10;99.90
15257;DHT22;7731;50.720;6.912;2022-11-20T07:43:11;4.10;99.90
15257;DHT22;7731;50.720;6.912;2022-11-20T07:45:44;4.20;99.90
15257;DHT22;7731;50.720;6.912;2022-11-20T07:48:17;4.20;99.90
15257;DHT22;7731;50.720;6.912;2022-11-20T07:50:48;4.30;99.90
15257;DHT22;7731;50.720;6.912;2022-11-20T07:53:19;4.30;99.90
15257;DHT22;7731;50.720;6.912;2022-11-20T07:55:53;4.30;99.90
15257;DHT22;7731;50.720;6.912;2022-11-20T07:58:33;4.30;99.90
15257;DHT22;7731;50.720;6.912;2022-11-20T08:01:08;4.30;99.90
15257;DHT22;7731;50.720;6.912;2022-11-20T08:03:39;4.30;99.90
15257;DHT22;7731;50.720;6.912;2022-11-20T08:06:09;4.30;99.90
15257;DHT22;7731;50.720;6.912;2022-11-20T08:08:42;4.40;99.90
15257;DHT22;7731;50.720;6.912;2022-11-20T08:11:12;4.40;99.90
15257;DHT22;7731;50.720;6.912;2022-11-20T08:13:54;4.40;99.90
15257;DHT22;7731;50.720;6.912;2022-11-20T08:16:40;4.60;99.90
15257;DHT22;7731;50.720;6.912;2022-11-20T08:19:13;4.70;99.90
15257;DHT22;7731;50.720;6.912;2022-11-20T08:21:47;4.60;99.90
15257;DHT22;7731;50.720;6.912;2022-11-20T08:24:17;4.50;99.90
15257;DHT22;7731;50.720;6.912;2022-11-20T08:26:47;4.50;99.90
15257;DHT22;7731;50.720;6.912;2022-11-20T08:29:23;4.70;99.90
15257;DHT22;7731;50.720;6.912;2022-11-20T08:31:58;4.80;99.90
15257;DHT22;7731;50.720;6.912;2022-11-20T08:34:32;5.10;99.90
15257;DHT22;7731;50.720;6.912;2022-11-20T08:37:09;5.30;99.90
15257;DHT22;7731;50.720;6.912;2022-11-20T08:39:39;5.40;99.90
15257;DHT22;7731;50.720;6.912;2022-11-20T08:42:10;5.50;99.90
15257;DHT22;7731;50.720;6.912;2022-11-20T08:44:43;5.50;99.90
15257;DHT22;7731;50.720;6.912;2022-11-20T08:47:18;5.60;99.90
15257;DHT22;7731;50.720;6.912;2022-11-20T08:49:49;5.60;99.90
15257;DHT22;7731;50.720;6.912;2022-11-20T08:52:19;5.60;99.90
15257;DHT22;7731;50.720;6.912;2022-11-20T08:54:49;5.60;99.90
15257;DHT22;7731;50.720;6.912;2022-11-20T08:57:19;5.50;99.90
15257;DHT22;7731;50.720;6.912;2022-11-20T08:59:50;5.60;99.90
15257;DHT22;7731;50.720;6.912;2022-11-20T09:02:39;5.60;99.90
15257;DHT22;7731;50.720;6.912;2022-11-20T09:05:12;5.50;99.90
15257;DHT22;7731;50.720;6.912;2022-11-20T09:07:51;5.50;99.90
15257;DHT22;7731;50.720;6.912;2022-11-20T09:10:21;5.50;99.90
15257;DHT22;7731;50.720;6.912;2022-11-20T09:12:51;5.30;99.90
15257;DHT22;7731;50.720;6.912;2022-11-20T09:15:33;5.30;99.90
15257;DHT22;7731;50.720;6.912;2022-11-20T09:18:06;5.40;99.90
15257;DHT22;7731;50.720;6.912;2022-11-20T09:20:37;5.30;99.90
15257;DHT22;7731;50.720;6.912;2022-11-20T09:23:08;5.40;99.90
15257;DHT22;7731;50.720;6.912;2022-11-20T09:25:38;5.50;99.90
15257;DHT22;7731;50.720;6.912;2022-11-20T09:28:11;5.70;99.90
15257;DHT22;7731;50.720;6.912;2022-11-20T09:30:43;5.80;99.90
15257;DHT22;7731;50.720;6.912;2022-11-20T09:33:16;6.10;99.90
15257;DHT22;7731;50.720;6.912;2022-11-20T09:35:47;6.20;99.90
15257;DHT22;7731;50.720;6.912;2022-11-20T09:38:23;6.20;99.90
15257;DHT22;7731;50.720;6.912;2022-11-20T09:41:04;6.30;99.90
15257;DHT22;7731;50.720;6.912;2022-11-20T09:43:46;6.70;99.90
15257;DHT22;7731;50.720;6.912;2022-11-20T09:46:30;6.90;99.90
15257;DHT22;7731;50.720;6.912;2022-11-20T09:49:25;7.00;99.90
15257;DHT22;7731;50.720;6.912;2022-11-20T09:52:11;7.10;99.90
15257;DHT22;7731;50.720;6.912;2022-11-20T09:54:52;6.90;99.90
15257;DHT22;7731;50.720;6.912;2022-11-20T09:57:31;7.40;99.90
15257;DHT22;7731;50.720;6.912;2022-11-20T10:00:09;8.00;99.90
15257;DHT22;7731;50.720;6.912;2022-11-20T10:02:44;8.10;99.90
15257;DHT22;7731;50.720;6.912;2022-11-20T10:05:27;8.80;99.90
15257;DHT22;7731;50.720;6.912;2022-11-20T10:08:07;8.90;99.90
15257;DHT22;7731;50.720;6.912;2022-11-20T10:10:48;8.50;99.90
15257;DHT22;7731;50.720;6.912;2022-11-20T10:13:35;8.50;99.90
15257;DHT22;7731;50.720;6.912;2022-11-20T10:16:21;8.40;99.90
15257;DHT22;7731;50.720;6.912;2022-11-20T10:19:27;7.70;99.90
15257;DHT22;7731;50.720;6.912;2022-11-20T10:22:27;7.60;99.90
15257;DHT22;7731;50.720;6.912;2022-11-20T10:25:14;7.40;99.90
15257;DHT22;7731;50.720;6.912;2022-11-20T10:28:10;7.10;99.90
15257;DHT22;7731;50.720;6.912;2022-11-20T10:30:57;6.90;99.90
15257;DHT22;7731;50.720;6.912;2022-11-20T10:33:42;6.40;99.90
15257;DHT22;7731;50.720;6.912;2022-11-20T10:36:42;6.40;99.90
15257;DHT22;7731;50.720;6.912;2022-11-20T10:39:24;6.20;99.90
15257;DHT22;7731;50.720;6.912;2022-11-20T10:42:03;6.30;99.90
15257;DHT22;7731;50.720;6.912;2022-11-20T10:44:43;6.40;99.90
15257;DHT22;7731;50.720;6.912;2022-11-20T10:47:33;6.50;99.90
15257;DHT22;7731;50.720;6.912;2022-11-20T10:50:05;6.50;99.90
15257;DHT22;7731;50.720;6.912;2022-11-20T10:52:59;6.60;99.90
15257;DHT22;7731;50.720;6.912;2022-11-20T10:55:46;6.60;99.90
15257;DHT22;7731;50.720;6.912;2022-11-20T10:58:29;6.80;99.90
15257;DHT22;7731;50.720;6.912;2022-11-20T11:01:15;6.80;99.90
15257;DHT22;7731;50.720;6.912;2022-11-20T11:03:51;7.00;99.90
15257;DHT22;7731;50.720;6.912;2022-11-20T11:06:28;7.00;99.90
15257;DHT22;7731;50.720;6.912;2022-11-20T11:09:16;7.10;99.90
15257;DHT22;7731;50.720;6.912;2022-11-20T11:11:53;7.10;99.90
15257;DHT22;7731;50.720;6.912;2022-11-20T11:14:42;6.90;99.90
15257;DHT22;7731;50.720;6.912;2022-11-20T11:17:25;6.90;99.90
15257;DHT22;7731;50.720;6.912;2022-11-20T11:20:05;7.00;99.90
15257;DHT22;7731;50.720;6.912;2022-11-20T11:22:45;6.80;99.90
15257;DHT22;7731;50.720;6.912;2022-11-20T11:25:23;6.70;99.90
15257;DHT22;7731;50.720;6.912;2022-11-20T11:28:04;6.70;99.90
15257;DHT22;7731;50.720;6.912;2022-11-20T11:30:49;6.80;99.90
15257;DHT22;7731;50.720;6.912;2022-11-20T11:33:21;6.80;99.90
15257;DHT22;7731;50.720;6.912;2022-11-20T11:35:56;6.60;99.90
15257;DHT22;7731;50.720;6.912;2022-11-20T11:38:34;6.70;99.90
15257;DHT22;7731;50.720;6.912;2022-11-20T11:41:22;6.70;99.90
15257;DHT22;7731;50.720;6.912;2022-11-20T11:44:00;6.90;99.90
15257;DHT22;7731;50.720;6.912;2022-11-20T11:46:52;6.80;99.90
15257;DHT22;7731;50.720;6.912;2022-11-20T11:49:24;6.70;99.90
15257;DHT22;7731;50.720;6.912;2022-11-20T11:52:04;6.50;99.90
15257;DHT22;7731;50.720;6.912;2022-11-20T11:54:47;6.40;99.90
15257;DHT22;7731;50.720;6.912;2022-11-20T11:57:37;6.50;99.90
15257;DHT22;7731;50.720;6.912;2022-11-20T12:00:21;6.60;99.90
15257;DHT22;7731;50.720;6.912;2022-11-20T12:03:04;6.70;99.90
15257;DHT22;7731;50.720;6.912;2022-11-20T12:05:43;6.80;99.90
15257;DHT22;7731;50.720;6.912;2022-11-20T12:08:20;6.70;99.90
15257;DHT22;7731;50.720;6.912;2022-11-20T12:10:57;6.80;99.90
15257;DHT22;7731;50.720;6.912;2022-11-20T12:13:48;6.80;99.90
15257;DHT22;7731;50.720;6.912;2022-11-20T12:16:26;7.00;99.90
15257;DHT22;7731;50.720;6.912;2022-11-20T12:18:58;7.40;99.90
15257;DHT22;7731;50.720;6.912;2022-11-20T12:21:34;7.60;99.90
15257;DHT22;7731;50.720;6.912;2022-11-20T12:24:42;7.70;99.90
15257;DHT22;7731;50.720;6.912;2022-11-20T12:27:39;8.00;99.90
15257;DHT22;7731;50.720;6.912;2022-11-20T12:30:17;8.00;99.90
15257;DHT22;7731;50.720;6.912;2022-11-20T12:33:03;7.70;99.90
15257;DHT22;7731;50.720;6.912;2022-11-20T12:35:54;7.50;99.90
15257;DHT22;7731;50.720;6.912;2022-11-20T12:39:12;7.50;99.90
15257;DHT22;7731;50.720;6.912;2022-11-20T12:42:07;7.40;99.90
15257;DHT22;7731;50.720;6.912;2022-11-20T12:45:28;7.50;99.90
15257;DHT22;7731;50.720;6.912;2022-11-20T12:48:36;7.60;99.90
15257;DHT22;7731;50.720;6.912;2022-11-20T12:55:08;7.70;99.90
15257;DHT22;7731;50.720;6.912;2022-11-20T12:57:48;7.70;99.90
15257;DHT22;7731;50.720;6.912;2022-11-20T13:00:23;7.60;99.90
15257;DHT22;7731;50.720;6.912;2022-11-20T13:06:16;7.60;99.90
15257;DHT22;7731;50.720;6.912;2022-11-20T13:08:52;7.60;99.90
15257;DHT22;7731;50.720;6.912;2022-11-20T13:11:30;7.60;99.90
15257;DHT22;7731;50.720;6.912;2022-11-20T13:14:26;7.70;99.90
15257;DHT22;7731;50.720;6.912;2022-11-20T13:17:23;7.80;99.90
15257;DHT22;7731;50.720;6.912;2022-11-20T13:20:04;7.80;99.90
15257;DHT22;7731;50.720;6.912;2022-11-20T13:22:53;7.90;99.90
15257;DHT22;7731;50.720;6.912;2022-11-20T13:25:27;8.00;99.90
15257;DHT22;7731;50.720;6.912;2022-11-20T13:27:59;8.10;99.90
15257;DHT22;7731;50.720;6.912;2022-11-20T13:30:32;7.90;99.90
15257;DHT22;7731;50.720;6.912;2022-11-20T13:33:07;7.70;99.90
15257;DHT22;7731;50.720;6.912;2022-11-20T13:35:56;7.70;99.90
15257;DHT22;7731;50.720;6.912;2022-11-20T13:38:28;7.50;99.90
15257;DHT22;7731;50.720;6.912;2022-11-20T13:41:10;7.40;99.90
15257;DHT22;7731;50.720;6.912;2022-11-20T13:43:52;7.40;99.90
15257;DHT22;7731;50.720;6.912;2022-11-20T13:46:37;7.40;99.90
15257;DHT22;7731;50.720;6.912;2022-11-20T13:49:20;7.50;99.90
15257;DHT22;7731;50.720;6.912;2022-11-20T13:52:08;7.60;99.90
15257;DHT22;7731;50.720;6.912;2022-11-20T13:55:13;7.70;99.90
15257;DHT22;7731;50.720;6.912;2022-11-20T13:58:04;7.70;99.90
15257;DHT22;7731;50.720;6.912;2022-11-20T14:00:48;7.70;99.90
15257;DHT22;7731;50.720;6.912;2022-11-20T14:03:24;7.60;99.90
15257;DHT22;7731;50.720;6.912;2022-11-20T14:06:25;7.70;99.90
15257;DHT22;7731;50.720;6.912;2022-11-20T14:09:02;7.70;99.90
15257;DHT22;7731;50.720;6.912;2022-11-20T14:11:32;7.70;99.90
15257;DHT22;7731;50.720;6.912;2022-11-20T14:14:04;7.70;99.90
15257;DHT22;7731;50.720;6.912;2022-11-20T14:16:46;7.80;99.90
15257;DHT22;7731;50.720;6.912;2022-11-20T14:19:30;7.90;99.90
15257;DHT22;7731;50.720;6.912;2022-11-20T14:22:16;7.90;99.90
15257;DHT22;7731;50.720;6.912;2022-11-20T14:25:05;7.90;99.90
15257;DHT22;7731;50.720;6.912;2022-11-20T14:27:52;7.90;99.90
15257;DHT22;7731;50.720;6.912;2022-11-20T14:30:24;7.90;99.90
15257;DHT22;7731;50.720;6.912;2022-11-20T14:33:03;7.80;99.90
15257;DHT22;7731;50.720;6.912;2022-11-20T14:35:42;7.80;99.90
15257;DHT22;7731;50.720;6.912;2022-11-20T14:38:18;7.80;99.90
15257;DHT22;7731;50.720;6.912;2022-11-20T14:41:06;7.80;99.90
15257;DHT22;7731;50.720;6.912;2022-11-20T14:43:39;7.80;99.90
15257;DHT22;7731;50.720;6.912;2022-11-20T14:46:15;7.80;99.90
15257;DHT22;7731;50.720;6.912;2022-11-20T14:48:46;7.80;99.90
15257;DHT22;7731;50.720;6.912;2022-11-20T14:51:30;7.80;99.90
15257;DHT22;7731;50.720;6.912;2022-11-20T14:54:14;7.80;99.90
15257;DHT22;7731;50.720;6.912;2022-11-20T14:56:57;7.80;99.90
15257;DHT22;7731;50.720;6.912;2022-11-20T14:59:29;7.90;99.90
15257;DHT22;7731;50.720;6.912;2022-11-20T15:02:03;8.00;99.90
15257;DHT22;7731;50.720;6.912;2022-11-20T15:04:45;8.10;99.90
15257;DHT22;7731;50.720;6.912;2022-11-20T15:07:26;8.10;99.90
15257;DHT22;7731;50.720;6.912;2022-11-20T15:10:20;8.10;99.90
15257;DHT22;7731;50.720;6.912;2022-11-20T15:13:10;8.00;99.90
15257;DHT22;7731;50.720;6.912;2022-11-20T15:15:45;8.00;99.90
15257;DHT22;7731;50.720;6.912;2022-11-20T15:18:19;7.90;99.90
15257;DHT22;7731;50.720;6.912;2022-11-20T15:20:55;7.90;99.90
15257;DHT22;7731;50.720;6.912;2022-11-20T15:23:26;7.80;99.90
15257;DHT22;7731;50.720;6.912;2022-11-20T15:26:00;7.80;99.90
15257;DHT22;7731;50.720;6.912;2022-11-20T15:28:40;7.60;99.90
15257;DHT22;7731;50.720;6.912;2022-11-20T15:31:16;7.70;99.90
15257;DHT22;7731;50.720;6.912;2022-11-20T15:33:48;7.60;99.90
15257;DHT22;7731;50.720;6.912;2022-11-20T15:36:19;7.50;99.90
15257;DHT22;7731;50.720;6.912;2022-11-20T15:38:57;7.50;99.90
15257;DHT22;7731;50.720;6.912;2022-11-20T15:41:27;7.50;99.90
15257;DHT22;7731;50.720;6.912;2022-11-20T15:44:00;7.40;99.90
15257;DHT22;7731;50.720;6.912;2022-11-20T15:46:36;7.40;99.90
15257;DHT22;7731;50.720;6.912;2022-11-20T15:49:14;7.40;99.90
15257;DHT22;7731;50.720;6.912;2022-11-20T15:51:49;7.30;99.90
15257;DHT22;7731;50.720;6.912;2022-11-20T15:54:22;7.20;99.90
15257;DHT22;7731;50.720;6.912;2022-11-20T15:56:52;7.40;99.90
15257;DHT22;7731;50.720;6.912;2022-11-20T15:59:26;7.30;99.90
15257;DHT22;7731;50.720;6.912;2022-11-20T16:02:07;7.20;99.90
15257;DHT22;7731;50.720;6.912;2022-11-20T16:04:48;7.30;99.90
15257;DHT22;7731;50.720;6.912;2022-11-20T16:07:21;7.20;99.90
15257;DHT22;7731;50.720;6.912;2022-11-20T16:09:54;7.30;99.90
15257;DHT22;7731;50.720;6.912;2022-11-20T16:12:30;7.30;99.90
15257;DHT22;7731;50.720;6.912;2022-11-20T16:15:18;7.20;99.90
15257;DHT22;7731;50.720;6.912;2022-11-20T16:18:01;7.00;99.90
15257;DHT22;7731;50.720;6.912;2022-11-20T16:20:31;7.00;99.90
15257;DHT22;7731;50.720;6.912;2022-11-20T16:23:04;6.90;99.90
15257;DHT22;7731;50.720;6.912;2022-11-20T16:25:40;7.00;99.90
15257;DHT22;7731;50.720;6.912;2022-11-20T16:28:11;7.00;99.90
15257;DHT22;7731;50.720;6.912;2022-11-20T16:30:55;7.10;99.90
15257;DHT22;7731;50.720;6.912;2022-11-20T16:33:25;7.10;99.90
15257;DHT22;7731;50.720;6.912;2022-11-20T16:35:58;7.20;99.90
15257;DHT22;7731;50.720;6.912;2022-11-20T16:38:39;7.10;99.90
15257;DHT22;7731;50.720;6.912;2022-11-20T16:41:13;7.10;99.90
15257;DHT22;7731;50.720;6.912;2022-11-20T16:43:47;7.10;99.90
15257;DHT22;7731;50.720;6.912;2022-11-20T16:46:23;6.90;99.90
15257;DHT22;7731;50.720;6.912;2022-11-20T16:48:55;6.90;99.90
15257;DHT22;7731;50.720;6.912;2022-11-20T16:51:27;6.90;99.90
15257;DHT22;7731;50.720;6.912;2022-11-20T16:54:02;6.90;99.90
15257;DHT22;7731;50.720;6.912;2022-11-20T16:56:33;6.90;99.90
15257;DHT22;7731;50.720;6.912;2022-11-20T16:59:04;6.90;99.90
15257;DHT22;7731;50.720;6.912;2022-11-20T17:01:37;6.90;99.90
15257;DHT22;7731;50.720;6.912;2022-11-20T17:04:09;6.90;99.90
15257;DHT22;7731;50.720;6.912;2022-11-20T17:06:41;6.90;99.90
15257;DHT22;7731;50.720;6.912;2022-11-20T17:09:14;6.90;99.90
15257;DHT22;7731;50.720;6.912;2022-11-20T17:11:44;6.80;99.90
15257;DHT22;7731;50.720;6.912;2022-11-20T17:14:14;6.80;99.90
15257;DHT22;7731;50.720;6.912;2022-11-20T17:16:50;6.90;99.90